createdAt,value
2018-12-01T00:01:15.097Z,100251.30
2018-12-01T00:03:42.536Z,100247.93
2018-12-01T00:06:09.966Z,100248.38
2018-12-01T00:08:37.404Z,100245.59
2018-12-01T00:11:04.843Z,100246.09
2018-12-01T00:13:32.303Z,100242.78
2018-12-01T00:15:59.744Z,100228.80
2018-12-01T00:18:27.179Z,100231.67
2018-12-01T00:20:54.671Z,100234.34
2018-12-01T00:23:22.136Z,100244.97
2018-12-01T00:25:49.560Z,100253.10
2018-12-01T00:28:16.984Z,100246.27
2018-12-01T00:30:44.427Z,100246.17
2018-12-01T00:33:11.867Z,100240.95
2018-12-01T00:35:39.311Z,100245.66
2018-12-01T00:38:06.752Z,100247.05
2018-12-01T00:40:34.175Z,100247.93
2018-12-01T00:43:01.604Z,100246.66
2018-12-01T00:45:29.041Z,100242.91
2018-12-01T00:47:56.463Z,100248.58
2018-12-01T00:50:23.906Z,100240.75
2018-12-01T00:52:51.345Z,100250.98
2018-12-01T00:55:18.788Z,100243.55
2018-12-01T00:57:46.211Z,100242.22
2018-12-01T01:00:13.635Z,100243.55
2018-12-01T01:02:41.837Z,100243.79
2018-12-01T01:05:09.272Z,100250.86
2018-12-01T01:07:36.711Z,100249.34
2018-12-01T01:10:04.231Z,100243.79
2018-12-01T01:12:31.824Z,100251.48
2018-12-01T01:14:59.250Z,100248.31
2018-12-01T01:17:26.812Z,100253.16
2018-12-01T01:19:54.275Z,100249.08
2018-12-01T01:22:21.698Z,100255.05
2018-12-01T01:24:49.142Z,100247.06
2018-12-01T01:27:16.566Z,100245.91
2018-12-01T01:29:44.098Z,100250.15
2018-12-01T01:32:11.661Z,100246.90
2018-12-01T01:34:39.097Z,100246.72
2018-12-01T01:37:06.567Z,100242.75
2018-12-01T01:39:34.007Z,100243.23
2018-12-01T01:42:01.496Z,100243.79
2018-12-01T01:44:28.932Z,100235.80
2018-12-01T01:46:56.367Z,100233.53
2018-12-01T01:49:23.807Z,100235.16
2018-12-01T01:51:51.319Z,100233.89
2018-12-01T01:54:18.759Z,100239.53
2018-12-01T01:56:46.186Z,100239.27
2018-12-01T01:59:13.615Z,100242.05
2018-12-01T02:01:41.039Z,100235.18
2018-12-01T02:04:08.485Z,100233.32
2018-12-01T02:06:35.960Z,100225.49
2018-12-01T02:09:03.544Z,100230.37
2018-12-01T02:11:30.971Z,100226.26
2018-12-01T02:13:58.400Z,100223.59
2018-12-01T02:16:25.902Z,100218.36
2018-12-01T02:18:53.611Z,100215.34
2018-12-01T02:21:21.124Z,100220.11
2018-12-01T02:23:48.544Z,100218.69
2018-12-01T02:26:16.027Z,100215.00
2018-12-01T02:28:43.498Z,100218.48
2018-12-01T02:31:10.933Z,100213.98
2018-12-01T02:33:38.528Z,100214.81
2018-12-01T02:36:06.055Z,100218.77
2018-12-01T02:38:33.462Z,100230.98
2018-12-01T02:41:00.979Z,100227.97
2018-12-01T02:43:28.415Z,100227.09
2018-12-01T02:45:55.908Z,100222.08
2018-12-01T02:48:23.355Z,100222.89
2018-12-01T02:50:50.811Z,100225.06
2018-12-01T02:53:18.239Z,100228.67
2018-12-01T02:55:45.672Z,100224.77
2018-12-01T02:58:13.112Z,100226.27
2018-12-01T03:00:40.541Z,100235.42
2018-12-01T03:03:08.006Z,100223.98
2018-12-01T03:05:35.446Z,100228.77
2018-12-01T03:08:02.875Z,100239.56
2018-12-01T03:10:30.302Z,100241.30
2018-12-01T03:12:57.747Z,100236.57
2018-12-01T03:15:25.193Z,100242.66
2018-12-01T03:17:52.625Z,100239.11
2018-12-01T03:20:20.068Z,100251.06
2018-12-01T03:22:47.570Z,100253.04
2018-12-01T03:25:18.463Z,100249.93
2018-12-01T03:27:45.899Z,100249.37
2018-12-01T03:30:13.344Z,100249.31
2018-12-01T03:32:40.783Z,100254.81
2018-12-01T03:35:08.207Z,100253.25
2018-12-01T03:37:35.656Z,100249.63
2018-12-01T03:40:03.080Z,100253.36
2018-12-01T03:42:31.123Z,100252.86
2018-12-01T03:44:58.568Z,100244.73
2018-12-01T03:47:25.992Z,100251.52
2018-12-01T03:49:53.423Z,100260.08
2018-12-01T03:52:20.855Z,100258.91
2018-12-01T03:54:48.279Z,100264.34
2018-12-01T03:57:15.718Z,100260.66
2018-12-01T03:59:43.162Z,100265.88
2018-12-01T04:02:10.592Z,100253.09
2018-12-01T04:04:38.016Z,100254.84
2018-12-01T04:07:05.460Z,100254.28
2018-12-01T04:09:32.888Z,100256.95
2018-12-01T04:12:00.328Z,100248.23
2018-12-01T04:14:27.868Z,100247.23
2018-12-01T04:16:55.304Z,100253.18
2018-12-01T04:19:22.723Z,100261.46
2018-12-01T04:21:50.152Z,100254.54
2018-12-01T04:24:17.579Z,100261.02
2018-12-01T04:26:45.023Z,100264.91
2018-12-01T04:29:12.507Z,100271.33
2018-12-01T04:31:39.940Z,100264.97
2018-12-01T04:34:07.373Z,100268.66
2018-12-01T04:36:34.811Z,100272.20
2018-12-01T04:39:02.235Z,100268.91
2018-12-01T04:41:29.663Z,100275.53
2018-12-01T04:43:57.095Z,100286.80
2018-12-01T04:46:24.539Z,100286.28
2018-12-01T04:48:51.959Z,100283.80
2018-12-01T04:51:19.398Z,100281.89
2018-12-01T04:53:46.828Z,100291.88
2018-12-01T04:56:14.259Z,100292.19
2018-12-01T04:58:41.687Z,100286.89
2018-12-01T05:01:09.123Z,100287.93
2018-12-01T05:03:36.572Z,100293.50
2018-12-01T05:06:04.166Z,100292.62
2018-12-01T05:08:31.591Z,100291.60
2018-12-01T05:10:59.028Z,100285.74
2018-12-01T05:13:26.454Z,100287.45
2018-12-01T05:15:53.892Z,100291.17
2018-12-01T05:18:21.324Z,100292.06
2018-12-01T05:20:48.767Z,100296.32
2018-12-01T05:23:16.199Z,100304.64
2018-12-01T05:25:43.631Z,100310.56
2018-12-01T05:28:11.051Z,100309.48
2018-12-01T05:30:38.543Z,100305.61
2018-12-01T05:33:05.979Z,100312.03
2018-12-01T05:35:33.979Z,100308.78
2018-12-01T05:38:01.423Z,100302.42
2018-12-01T05:40:28.855Z,100311.59
2018-12-01T05:42:56.295Z,100305.41
2018-12-01T05:45:23.748Z,100308.39
2018-12-01T05:47:51.173Z,100314.31
2018-12-01T05:50:26.582Z,100304.02
2018-12-01T05:52:54.044Z,100311.06
2018-12-01T05:55:21.840Z,100306.95
2018-12-01T05:57:49.259Z,100317.42
2018-12-01T06:00:17.111Z,100315.34
2018-12-01T06:02:44.555Z,100324.55
2018-12-01T06:05:12.002Z,100322.41
2018-12-01T06:07:39.512Z,100325.52
2018-12-01T06:10:06.960Z,100316.38
2018-12-01T06:12:34.416Z,100317.06
2018-12-01T06:15:01.882Z,100332.54
2018-12-01T06:17:29.307Z,100332.69
2018-12-01T06:19:56.748Z,100329.96
2018-12-01T06:22:24.175Z,100331.38
2018-12-01T06:24:51.595Z,100337.09
2018-12-01T06:27:19.059Z,100342.56
2018-12-01T06:29:46.519Z,100336.27
2018-12-01T06:32:13.964Z,100337.21
2018-12-01T06:34:41.426Z,100335.94
2018-12-01T06:37:08.886Z,100342.06
2018-12-01T06:39:36.327Z,100338.42
2018-12-01T06:42:03.788Z,100345.31
2018-12-01T06:44:31.221Z,100356.34
2018-12-01T06:46:58.656Z,100360.88
2018-12-01T06:49:26.095Z,100355.64
2018-12-01T06:51:53.643Z,100354.01
2018-12-01T06:54:21.076Z,100353.33
2018-12-01T06:56:48.521Z,100360.49
2018-12-01T06:59:15.960Z,100358.53
2018-12-01T07:01:43.398Z,100358.59
2018-12-01T07:04:10.830Z,100363.92
2018-12-01T07:06:38.260Z,100370.28
2018-12-01T07:09:05.692Z,100361.59
2018-12-01T07:11:33.133Z,100365.76
2018-12-01T07:14:01.420Z,100367.88
2018-12-01T07:16:28.931Z,100364.24
2018-12-01T07:18:56.383Z,100365.76
2018-12-01T07:21:23.820Z,100362.23
2018-12-01T07:23:51.263Z,100363.69
2018-12-01T07:26:18.767Z,100372.68
2018-12-01T07:28:46.198Z,100372.33
2018-12-01T07:31:13.627Z,100380.25
2018-12-01T07:33:41.131Z,100373.89
2018-12-01T07:36:08.571Z,100374.66
2018-12-01T07:38:36.008Z,100367.66
2018-12-01T07:41:03.442Z,100373.72
2018-12-01T07:43:30.973Z,100374.56
2018-12-01T07:45:58.395Z,100369.23
2018-12-01T07:48:25.839Z,100378.27
2018-12-01T07:50:53.285Z,100374.45
2018-12-01T07:53:20.758Z,100371.05
2018-12-01T07:55:48.191Z,100375.66
2018-12-01T07:58:15.645Z,100375.00
2018-12-01T08:00:43.096Z,100378.34
2018-12-01T08:03:10.532Z,100379.23
2018-12-01T08:05:37.997Z,100380.95
2018-12-01T08:08:05.424Z,100384.87
2018-12-01T08:10:32.873Z,100380.61
2018-12-01T08:13:00.312Z,100378.91
2018-12-01T08:15:27.787Z,100386.61
2018-12-01T08:17:55.215Z,100380.09
2018-12-01T08:20:22.662Z,100379.53
2018-12-01T08:22:50.129Z,100378.95
2018-12-01T08:25:17.568Z,100386.41
2018-12-01T08:27:45.031Z,100376.34
2018-12-01T08:30:12.472Z,100376.94
2018-12-01T08:32:39.910Z,100378.66
2018-12-01T08:35:07.364Z,100382.42
2018-12-01T08:37:34.815Z,100372.23
2018-12-01T08:40:02.244Z,100371.16
2018-12-01T08:42:29.688Z,100386.52
2018-12-01T08:44:57.123Z,100379.50
2018-12-01T08:47:24.589Z,100386.07
2018-12-01T08:49:52.035Z,100389.82
2018-12-01T08:52:19.500Z,100388.80
2018-12-01T08:54:46.932Z,100385.18
2018-12-01T08:57:14.376Z,100386.64
2018-12-01T08:59:41.844Z,100391.08
2018-12-01T09:02:09.277Z,100391.98
2018-12-01T09:04:37.664Z,100383.39
2018-12-01T09:07:05.111Z,100380.98
2018-12-01T09:09:32.574Z,100391.30
2018-12-01T09:12:00.008Z,100394.59
2018-12-01T09:14:27.444Z,100394.39
2018-12-01T09:16:54.896Z,100398.11
2018-12-01T09:19:22.332Z,100392.17
2018-12-01T09:21:49.780Z,100397.66
2018-12-01T09:24:17.264Z,100394.64
2018-12-01T09:26:44.699Z,100397.47
2018-12-01T09:29:12.140Z,100389.25
2018-12-01T09:31:39.570Z,100403.88
2018-12-01T09:34:07.044Z,100400.56
2018-12-01T09:36:34.497Z,100405.02
2018-12-01T09:39:01.944Z,100406.36
2018-12-01T09:41:29.381Z,100394.47
2018-12-01T09:43:56.821Z,100396.63
2018-12-01T09:46:24.283Z,100391.27
2018-12-01T09:48:51.731Z,100388.09
2018-12-01T09:51:19.171Z,100390.26
2018-12-01T09:53:46.630Z,100385.20
2018-12-01T09:56:14.063Z,100385.86
2018-12-01T09:58:41.511Z,100384.58
2018-12-01T10:01:08.941Z,100387.47
2018-12-01T10:03:36.380Z,100384.14
2018-12-01T10:06:03.837Z,100393.26
2018-12-01T10:08:31.266Z,100390.34
2018-12-01T10:10:58.703Z,100387.69
2018-12-01T10:13:26.172Z,100391.32
2018-12-01T10:15:53.610Z,100384.94
2018-12-01T10:18:21.074Z,100382.78
2018-12-01T10:20:48.503Z,100380.53
2018-12-01T10:23:15.943Z,100385.73
2018-12-01T10:25:43.384Z,100380.64
2018-12-01T10:28:10.833Z,100374.84
2018-12-01T10:30:38.261Z,100375.51
2018-12-01T10:33:05.724Z,100376.02
2018-12-01T10:35:33.172Z,100371.41
2018-12-01T10:38:00.619Z,100365.93
2018-12-01T10:40:28.051Z,100362.27
2018-12-01T10:42:55.496Z,100357.08
2018-12-01T10:45:22.936Z,100351.29
2018-12-01T10:47:50.379Z,100356.97
2018-12-01T10:50:17.829Z,100346.88
2018-12-01T10:52:45.291Z,100351.59
2018-12-01T10:55:12.736Z,100349.52
2018-12-01T10:57:40.169Z,100345.68
2018-12-01T11:00:07.651Z,100344.59
2018-12-01T11:02:40.804Z,100337.91
2018-12-01T11:05:07.908Z,100341.52
2018-12-01T11:07:35.336Z,100343.11
2018-12-01T11:10:02.762Z,100350.30
2018-12-01T11:12:30.199Z,100345.29
2018-12-01T11:14:57.639Z,100339.50
2018-12-01T11:17:25.094Z,100335.06
2018-12-01T11:19:52.538Z,100330.17
2018-12-01T11:22:20.017Z,100328.37
2018-12-01T11:24:47.412Z,100322.67
2018-12-01T11:27:14.863Z,100335.27
2018-12-01T11:29:42.391Z,100329.75
2018-12-01T11:32:09.821Z,100330.25
2018-12-01T11:34:37.260Z,100332.14
2018-12-01T11:37:04.689Z,100332.95
2018-12-01T11:39:32.119Z,100332.53
2018-12-01T11:41:59.553Z,100337.39
2018-12-01T11:44:26.989Z,100330.86
2018-12-01T11:46:54.484Z,100329.25
2018-12-01T11:49:21.921Z,100324.52
2018-12-01T11:51:49.359Z,100324.06
2018-12-01T11:54:16.787Z,100323.80
2018-12-01T11:56:44.315Z,100329.84
2018-12-01T11:59:11.768Z,100325.78
2018-12-01T12:01:39.228Z,100327.95
2018-12-01T12:04:06.688Z,100328.52
2018-12-01T12:06:34.121Z,100332.24
2018-12-01T12:09:01.599Z,100332.23
2018-12-01T12:11:29.023Z,100330.75
2018-12-01T12:13:56.456Z,100329.13
2018-12-01T12:16:23.887Z,100333.62
2018-12-01T12:18:51.324Z,100332.84
2018-12-01T12:21:18.801Z,100339.56
2018-12-01T12:23:46.240Z,100340.12
2018-12-01T12:26:13.671Z,100332.73
2018-12-01T12:28:41.116Z,100337.73
2018-12-01T12:31:08.560Z,100332.59
2018-12-01T12:33:35.992Z,100339.25
2018-12-01T12:36:03.436Z,100332.52
2018-12-01T12:38:30.864Z,100327.45
2018-12-01T12:40:58.353Z,100334.08
2018-12-01T12:43:25.777Z,100334.96
2018-12-01T12:45:53.224Z,100334.34
2018-12-01T12:48:20.650Z,100343.30
2018-12-01T12:50:52.932Z,100335.58
2018-12-01T12:53:16.481Z,100323.41
2018-12-01T12:55:43.908Z,100326.30
2018-12-01T12:58:11.856Z,100335.13
2018-12-01T13:00:39.284Z,100325.08
2018-12-01T13:03:06.728Z,100318.46
2018-12-01T13:05:34.164Z,100321.00
2018-12-01T13:08:01.593Z,100317.19
2018-12-01T13:10:29.028Z,100321.19
2018-12-01T13:12:56.468Z,100325.52
2018-12-01T13:15:23.968Z,100329.90
2018-12-01T13:17:51.387Z,100324.53
2018-12-01T13:20:18.828Z,100318.58
2018-12-01T13:22:46.251Z,100324.73
2018-12-01T13:25:13.687Z,100313.57
2018-12-01T13:27:41.122Z,100321.61
2018-12-01T13:30:08.624Z,100325.78
2018-12-01T13:32:36.075Z,100317.27
2018-12-01T13:35:03.507Z,100315.95
2018-12-01T13:37:31.819Z,100320.67
2018-12-01T13:39:59.272Z,100328.08
2018-12-01T13:42:26.717Z,100330.80
2018-12-01T13:44:54.188Z,100328.56
2018-12-01T13:47:21.679Z,100330.75
2018-12-01T13:49:49.103Z,100333.14
2018-12-01T13:52:16.523Z,100331.41
2018-12-01T13:54:43.967Z,100334.01
2018-12-01T13:57:11.404Z,100327.17
2018-12-01T13:59:38.825Z,100332.73
2018-12-01T14:02:06.287Z,100344.94
2018-12-01T14:04:33.829Z,100345.62
2018-12-01T14:07:01.240Z,100342.81
2018-12-01T14:09:28.774Z,100341.15
2018-12-01T14:11:56.228Z,100340.41
2018-12-01T14:14:24.272Z,100336.31
2018-12-01T14:16:51.749Z,100331.88
2018-12-01T14:19:19.207Z,100328.16
2018-12-01T14:21:46.683Z,100324.83
2018-12-01T14:24:14.111Z,100330.56
2018-12-01T14:26:41.548Z,100332.72
2018-12-01T14:29:08.987Z,100339.00
2018-12-01T14:31:36.495Z,100337.52
2018-12-01T14:34:04.057Z,100343.97
2018-12-01T14:36:31.511Z,100346.73
2018-12-01T14:38:58.955Z,100344.86
2018-12-01T14:41:26.479Z,100341.94
2018-12-01T14:43:53.903Z,100341.73
2018-12-01T14:46:23.782Z,100357.25
2018-12-01T14:48:48.877Z,100351.88
2018-12-01T14:51:16.365Z,100355.39
2018-12-01T14:53:43.816Z,100352.16
2018-12-01T14:56:11.256Z,100360.33
2018-12-01T14:58:42.410Z,100352.84
2018-12-01T15:01:06.810Z,100353.06
2018-12-01T15:03:34.233Z,100359.83
2018-12-01T15:06:01.674Z,100360.41
2018-12-01T15:08:29.105Z,100354.63
2018-12-01T15:10:56.631Z,100357.17
2018-12-01T15:13:24.195Z,100357.98
2018-12-01T15:15:51.638Z,100354.81
2018-12-01T15:18:19.075Z,100356.09
2018-12-01T15:20:46.511Z,100349.41
2018-12-01T15:23:13.943Z,100352.94
2018-12-01T15:25:41.407Z,100360.51
2018-12-01T15:28:08.828Z,100361.37
2018-12-01T15:30:36.395Z,100367.08
2018-12-01T15:33:10.122Z,100364.99
2018-12-01T15:35:37.577Z,100375.19
2018-12-01T15:38:05.011Z,100373.42
2018-12-01T15:40:32.558Z,100371.84
2018-12-01T15:42:59.981Z,100371.21
2018-12-01T15:45:27.491Z,100373.11
2018-12-01T15:47:54.922Z,100377.82
2018-12-01T15:50:22.356Z,100381.64
2018-12-01T15:52:51.301Z,100385.16
2018-12-01T15:55:18.737Z,100378.20
2018-12-01T15:57:46.372Z,100386.44
2018-12-01T16:00:13.891Z,100388.52
2018-12-01T16:02:41.397Z,100389.80
2018-12-01T16:05:08.835Z,100400.22
2018-12-01T16:07:36.272Z,100404.73
2018-12-01T16:10:03.708Z,100385.03
2018-12-01T16:12:31.184Z,100386.30
2018-12-01T16:14:58.564Z,100381.40
2018-12-01T16:17:26.015Z,100389.05
2018-12-01T16:19:53.638Z,100390.94
2018-12-01T16:22:21.067Z,100390.13
2018-12-01T16:24:48.567Z,100390.63
2018-12-01T16:27:15.998Z,100390.24
2018-12-01T16:29:44.108Z,100388.58
2018-12-01T16:32:11.560Z,100380.70
2018-12-01T16:34:39.000Z,100378.94
2018-12-01T16:37:06.441Z,100375.22
2018-12-01T16:39:34.040Z,100374.42
2018-12-01T16:42:01.658Z,100377.08
2018-12-01T16:44:29.055Z,100375.72
2018-12-01T16:46:56.499Z,100386.31
2018-12-01T16:49:23.943Z,100384.75
2018-12-01T16:51:51.379Z,100380.34
2018-12-01T16:54:18.829Z,100378.95
2018-12-01T16:56:46.280Z,100379.34
2018-12-01T16:59:13.710Z,100379.55
2018-12-01T17:01:41.147Z,100368.34
2018-12-01T17:04:08.588Z,100382.09
2018-12-01T17:06:36.028Z,100383.06
2018-12-01T17:09:03.915Z,100378.35
2018-12-01T17:11:31.343Z,100373.06
2018-12-01T17:13:58.787Z,100364.72
2018-12-01T17:16:26.218Z,100361.67
2018-12-01T17:18:54.342Z,100357.95
2018-12-01T17:21:21.099Z,100350.78
2018-12-01T17:23:48.536Z,100355.84
2018-12-01T17:26:15.983Z,100353.41
2018-12-01T17:28:43.471Z,100347.23
2018-12-01T17:31:10.943Z,100346.16
2018-12-01T17:33:38.380Z,100338.81
2018-12-01T17:36:05.812Z,100353.41
2018-12-01T17:38:33.256Z,100350.48
2018-12-01T17:41:00.687Z,100353.03
2018-12-01T17:43:28.124Z,100354.41
2018-12-01T17:45:55.547Z,100353.72
2018-12-01T17:48:23.031Z,100350.75
2018-12-01T17:50:50.473Z,100339.98
2018-12-01T17:53:17.912Z,100338.59
2018-12-01T17:55:45.436Z,100338.31
2018-12-01T17:58:12.932Z,100335.66
2018-12-01T18:00:40.376Z,100332.91
2018-12-01T18:03:07.807Z,100333.41
2018-12-01T18:05:35.246Z,100331.63
2018-12-01T18:08:02.690Z,100325.84
2018-12-01T18:10:30.179Z,100319.98
2018-12-01T18:12:57.656Z,100309.77
2018-12-01T18:15:25.087Z,100312.83
2018-12-01T18:17:52.515Z,100306.15
2018-12-01T18:20:20.763Z,100292.33
2018-12-01T18:22:48.209Z,100292.52
2018-12-01T18:25:15.647Z,100292.83
2018-12-01T18:27:43.090Z,100287.63
2018-12-01T18:30:10.529Z,100287.20
2018-12-01T18:32:37.966Z,100298.87
2018-12-01T18:35:05.394Z,100288.48
2018-12-01T18:37:32.829Z,100282.42
2018-12-01T18:40:00.266Z,100281.30
2018-12-01T18:42:27.702Z,100282.00
2018-12-01T18:44:55.145Z,100277.21
2018-12-01T18:47:22.587Z,100278.84
2018-12-01T18:49:50.024Z,100275.41
2018-12-01T18:52:17.474Z,100268.45
2018-12-01T18:54:44.923Z,100261.63
2018-12-01T18:57:12.499Z,100269.27
2018-12-01T18:59:39.936Z,100263.28
2018-12-01T19:02:07.384Z,100259.73
2018-12-01T19:04:34.804Z,100261.63
2018-12-01T19:07:02.248Z,100254.72
2018-12-01T19:09:29.684Z,100247.27
2018-12-01T19:11:57.121Z,100244.73
2018-12-01T19:14:24.559Z,100240.71
2018-12-01T19:16:51.986Z,100232.61
2018-12-01T19:19:19.426Z,100229.67
2018-12-01T19:21:46.859Z,100233.87
2018-12-01T19:24:14.303Z,100227.40
2018-12-01T19:26:41.726Z,100228.28
2018-12-01T19:29:09.164Z,100229.25
2018-12-01T19:31:36.590Z,100229.02
2018-12-01T19:34:04.031Z,100229.45
2018-12-01T19:36:31.474Z,100233.37
2018-12-01T19:38:58.906Z,100234.66
2018-12-01T19:41:26.318Z,100227.86
2018-12-01T19:43:53.768Z,100227.87
2018-12-01T19:46:21.198Z,100229.72
2018-12-01T19:48:48.631Z,100229.33
2018-12-01T19:51:16.082Z,100228.83
2018-12-01T19:53:43.517Z,100233.84
2018-12-01T19:56:10.948Z,100216.98
2018-12-01T19:58:38.392Z,100224.43
2018-12-01T20:01:05.822Z,100225.31
2018-12-01T20:03:33.262Z,100222.39
2018-12-01T20:06:00.719Z,100217.18
2018-12-01T20:08:28.152Z,100221.39
2018-12-01T20:10:55.580Z,100210.43
2018-12-01T20:13:23.015Z,100220.23
2018-12-01T20:15:50.443Z,100209.08
2018-12-01T20:18:17.875Z,100205.06
2018-12-01T20:20:45.310Z,100204.64
2018-12-01T20:23:12.747Z,100206.03
2018-12-01T20:25:40.179Z,100208.61
2018-12-01T20:28:07.620Z,100209.19
2018-12-01T20:30:35.052Z,100203.90
2018-12-01T20:33:02.493Z,100200.94
2018-12-01T20:35:29.923Z,100203.67
2018-12-01T20:37:57.365Z,100193.98
2018-12-01T20:40:24.795Z,100194.18
2018-12-01T20:42:52.230Z,100189.67
2018-12-01T20:45:19.672Z,100186.93
2018-12-01T20:47:47.101Z,100192.02
2018-12-01T20:50:14.540Z,100179.71
2018-12-01T20:52:41.976Z,100184.69
2018-12-01T20:55:09.414Z,100182.72
2018-12-01T20:57:36.844Z,100175.00
2018-12-01T21:00:04.268Z,100168.52
2018-12-01T21:02:31.694Z,100167.58
2018-12-01T21:04:59.132Z,100182.35
2018-12-01T21:07:26.569Z,100175.09
2018-12-01T21:09:54.002Z,100173.23
2018-12-01T21:12:21.446Z,100172.27
2018-12-01T21:14:48.880Z,100173.63
2018-12-01T21:17:16.312Z,100156.59
2018-12-01T21:19:43.767Z,100154.92
2018-12-01T21:22:11.197Z,100155.69
2018-12-01T21:24:38.638Z,100148.04
2018-12-01T21:27:06.098Z,100138.33
2018-12-01T21:29:33.534Z,100138.02
2018-12-01T21:32:00.974Z,100135.47
2018-12-01T21:34:28.419Z,100143.80
2018-12-01T21:36:55.851Z,100147.02
2018-12-01T21:39:23.437Z,100151.94
2018-12-01T21:41:50.873Z,100146.73
2018-12-01T21:44:18.361Z,100145.87
2018-12-01T21:46:45.945Z,100142.41
2018-12-01T21:49:13.390Z,100139.77
2018-12-01T21:51:40.819Z,100146.34
2018-12-01T21:54:08.401Z,100137.80
2018-12-01T21:56:35.878Z,100136.64
2018-12-01T21:59:03.332Z,100129.98
2018-12-01T22:01:30.821Z,100136.64
2018-12-01T22:03:58.325Z,100133.00
2018-12-01T22:06:25.780Z,100133.05
2018-12-01T22:08:53.214Z,100137.73
2018-12-01T22:11:20.654Z,100134.61
2018-12-01T22:13:48.099Z,100128.80
2018-12-01T22:16:15.563Z,100135.38
2018-12-01T22:18:43.017Z,100130.21
2018-12-01T22:21:10.450Z,100124.20
2018-12-01T22:23:37.912Z,100124.98
2018-12-01T22:26:05.373Z,100124.13
2018-12-01T22:28:35.319Z,100124.67
2018-12-01T22:31:00.332Z,100118.30
2018-12-01T22:33:27.771Z,100118.20
2018-12-01T22:35:55.237Z,100121.31
2018-12-01T22:38:22.721Z,100109.66
2018-12-01T22:40:50.196Z,100105.63
2018-12-01T22:43:17.655Z,100105.37
2018-12-01T22:45:45.143Z,100100.21
2018-12-01T22:48:12.601Z,100097.77
2018-12-01T22:50:40.110Z,100092.10
2018-12-01T22:53:07.547Z,100081.69
2018-12-01T22:55:35.005Z,100078.81
2018-12-01T22:58:02.448Z,100070.89
2018-12-01T23:00:29.908Z,100062.56
2018-12-01T23:02:57.654Z,100066.81
2018-12-01T23:05:25.142Z,100057.39
2018-12-01T23:07:52.629Z,100060.91
2018-12-01T23:10:20.109Z,100060.02
2018-12-01T23:12:47.566Z,100056.75
2018-12-01T23:15:15.007Z,100054.97
2018-12-01T23:17:42.461Z,100050.94
2018-12-01T23:20:09.904Z,100041.23
2018-12-01T23:22:37.363Z,100043.06
2018-12-01T23:25:04.821Z,100030.66
2018-12-01T23:27:32.275Z,100022.16
2018-12-01T23:29:59.742Z,100015.40
2018-12-01T23:32:27.189Z,100021.95
2018-12-01T23:34:54.640Z,100015.96
2018-12-01T23:37:22.091Z,100011.74
2018-12-01T23:39:49.568Z,100016.57
2018-12-01T23:42:17.004Z,100018.22
2018-12-01T23:44:44.446Z,100008.14
2018-12-01T23:47:11.884Z,100015.18
2018-12-01T23:49:39.332Z,100014.84
2018-12-01T23:52:06.832Z,100009.19
2018-12-01T23:54:34.253Z,100026.38
2018-12-01T23:57:01.697Z,100015.56
2018-12-01T23:59:29.136Z,100010.75
